sensor_id;sensor_type;location;lat;lon;timestamp;temperature;humidity
16523;DHT22;19889;52.546;13.348;2023-09-19T00:00:28;22.30;99.90
16523;DHT22;19889;52.546;13.348;2023-09-19T00:02:56;22.40;99.90
16523;DHT22;19889;52.546;13.348;2023-09-19T00:05:25;22.40;99.90
16523;DHT22;19889;52.546;13.348;2023-09-19T00:07:54;22.30;99.90
16523;DHT22;19889;52.546;13.348;2023-09-19T00:10:21;22.30;99.90
16523;DHT22;19889;52.546;13.348;2023-09-19T00:12:50;22.30;99.90
16523;DHT22;19889;52.546;13.348;2023-09-19T00:15:18;22.30;99.90
16523;DHT22;19889;52.546;13.348;2023-09-19T00:17:47;22.30;99.90
16523;DHT22;19889;52.546;13.348;2023-09-19T00:20:15;22.30;99.90
16523;DHT22;19889;52.546;13.348;2023-09-19T00:22:43;22.30;99.90
16523;DHT22;19889;52.546;13.348;2023-09-19T00:25:11;22.30;99.90
16523;DHT22;19889;52.546;13.348;2023-09-19T00:27:41;22.30;99.90
16523;DHT22;19889;52.546;13.348;2023-09-19T00:30:10;22.30;99.90
16523;DHT22;19889;52.546;13.348;2023-09-19T00:32:41;22.30;99.90
16523;DHT22;19889;52.546;13.348;2023-09-19T00:35:10;22.30;99.90
16523;DHT22;19889;52.546;13.348;2023-09-19T00:37:37;22.20;99.90
16523;DHT22;19889;52.546;13.348;2023-09-19T00:40:06;22.20;99.90
16523;DHT22;19889;52.546;13.348;2023-09-19T00:42:37;22.20;99.90
16523;DHT22;19889;52.546;13.348;2023-09-19T00:45:06;22.20;99.90
16523;DHT22;19889;52.546;13.348;2023-09-19T00:47:35;22.20;99.90
16523;DHT22;19889;52.546;13.348;2023-09-19T00:50:04;22.10;99.90
16523;DHT22;19889;52.546;13.348;2023-09-19T00:52:35;22.10;99.90
16523;DHT22;19889;52.546;13.348;2023-09-19T00:55:05;22.10;99.90
16523;DHT22;19889;52.546;13.348;2023-09-19T00:57:34;22.10;99.90
16523;DHT22;19889;52.546;13.348;2023-09-19T01:00:02;22.10;99.90
16523;DHT22;19889;52.546;13.348;2023-09-19T01:02:34;22.10;99.90
16523;DHT22;19889;52.546;13.348;2023-09-19T01:05:01;22.10;99.90
16523;DHT22;19889;52.546;13.348;2023-09-19T01:07:31;22.10;99.90
16523;DHT22;19889;52.546;13.348;2023-09-19T01:10:01;22.10;99.90
16523;DHT22;19889;52.546;13.348;2023-09-19T01:12:41;23.50;99.90
16523;DHT22;19889;52.546;13.348;2023-09-19T01:15:21;22.00;99.90
16523;DHT22;19889;52.546;13.348;2023-09-19T01:17:55;22.00;99.90
16523;DHT22;19889;52.546;13.348;2023-09-19T01:20:30;22.00;99.90
16523;DHT22;19889;52.546;13.348;2023-09-19T01:23:11;22.00;99.90
16523;DHT22;19889;52.546;13.348;2023-09-19T01:26:01;22.00;99.90
16523;DHT22;19889;52.546;13.348;2023-09-19T01:28:32;22.00;99.90
16523;DHT22;19889;52.546;13.348;2023-09-19T01:31:06;22.00;99.90
16523;DHT22;19889;52.546;13.348;2023-09-19T01:33:54;22.00;99.90
16523;DHT22;19889;52.546;13.348;2023-09-19T01:36:23;22.00;99.90
16523;DHT22;19889;52.546;13.348;2023-09-19T01:38:50;22.00;99.90
16523;DHT22;19889;52.546;13.348;2023-09-19T01:41:26;21.90;99.90
16523;DHT22;19889;52.546;13.348;2023-09-19T01:43:54;21.50;99.90
16523;DHT22;19889;52.546;13.348;2023-09-19T01:46:25;21.90;99.90
16523;DHT22;19889;52.546;13.348;2023-09-19T01:49:06;21.90;99.90
16523;DHT22;19889;52.546;13.348;2023-09-19T01:51:42;21.90;99.90
16523;DHT22;19889;52.546;13.348;2023-09-19T01:54:13;21.90;99.90
16523;DHT22;19889;52.546;13.348;2023-09-19T01:56:49;21.90;99.90
16523;DHT22;19889;52.546;13.348;2023-09-19T01:59:23;21.90;99.90
16523;DHT22;19889;52.546;13.348;2023-09-19T02:01:54;21.90;99.90
16523;DHT22;19889;52.546;13.348;2023-09-19T02:04:22;21.90;99.90
16523;DHT22;19889;52.546;13.348;2023-09-19T02:06:50;21.90;99.90
16523;DHT22;19889;52.546;13.348;2023-09-19T02:09:17;21.90;99.90
16523;DHT22;19889;52.546;13.348;2023-09-19T02:11:44;21.40;99.90
16523;DHT22;19889;52.546;13.348;2023-09-19T02:14:12;21.90;99.90
16523;DHT22;19889;52.546;13.348;2023-09-19T02:16:41;21.90;99.90
16523;DHT22;19889;52.546;13.348;2023-09-19T02:19:09;21.90;99.90
16523;DHT22;19889;52.546;13.348;2023-09-19T02:21:36;21.90;99.90
16523;DHT22;19889;52.546;13.348;2023-09-19T02:24:06;21.80;99.90
16523;DHT22;19889;52.546;13.348;2023-09-19T02:26:35;21.80;99.90
16523;DHT22;19889;52.546;13.348;2023-09-19T02:29:03;21.80;99.90
16523;DHT22;19889;52.546;13.348;2023-09-19T02:31:30;21.80;99.90
16523;DHT22;19889;52.546;13.348;2023-09-19T02:33:57;21.70;99.90
16523;DHT22;19889;52.546;13.348;2023-09-19T02:36:27;21.80;99.90
16523;DHT22;19889;52.546;13.348;2023-09-19T02:38:56;21.70;99.90
16523;DHT22;19889;52.546;13.348;2023-09-19T02:41:24;21.70;99.90
16523;DHT22;19889;52.546;13.348;2023-09-19T02:43:51;21.70;99.90
16523;DHT22;19889;52.546;13.348;2023-09-19T02:46:19;21.60;99.90
16523;DHT22;19889;52.546;13.348;2023-09-19T02:48:47;21.60;99.90
16523;DHT22;19889;52.546;13.348;2023-09-19T02:51:14;21.60;99.90
16523;DHT22;19889;52.546;13.348;2023-09-19T02:53:43;21.60;99.90
16523;DHT22;19889;52.546;13.348;2023-09-19T02:56:10;21.60;99.90
16523;DHT22;19889;52.546;13.348;2023-09-19T02:58:39;21.60;99.90
16523;DHT22;19889;52.546;13.348;2023-09-19T03:01:10;21.60;99.90
16523;DHT22;19889;52.546;13.348;2023-09-19T03:03:38;21.60;99.90
16523;DHT22;19889;52.546;13.348;2023-09-19T03:06:06;21.60;99.90
16523;DHT22;19889;52.546;13.348;2023-09-19T03:08:35;21.60;99.90
16523;DHT22;19889;52.546;13.348;2023-09-19T03:11:05;21.60;99.90
16523;DHT22;19889;52.546;13.348;2023-09-19T03:13:34;21.60;99.90
16523;DHT22;19889;52.546;13.348;2023-09-19T03:16:04;21.60;99.90
16523;DHT22;19889;52.546;13.348;2023-09-19T03:18:33;21.60;99.90
16523;DHT22;19889;52.546;13.348;2023-09-19T03:21:01;21.50;99.90
16523;DHT22;19889;52.546;13.348;2023-09-19T03:23:29;21.50;99.90
16523;DHT22;19889;52.546;13.348;2023-09-19T03:25:57;21.50;99.90
16523;DHT22;19889;52.546;13.348;2023-09-19T03:28:26;21.50;99.90
16523;DHT22;19889;52.546;13.348;2023-09-19T03:30:59;21.50;99.90
16523;DHT22;19889;52.546;13.348;2023-09-19T03:33:28;21.50;99.90
16523;DHT22;19889;52.546;13.348;2023-09-19T03:35:57;21.50;99.90
16523;DHT22;19889;52.546;13.348;2023-09-19T03:38:25;21.50;99.90
16523;DHT22;19889;52.546;13.348;2023-09-19T03:40:52;21.50;99.90
16523;DHT22;19889;52.546;13.348;2023-09-19T03:43:20;21.40;99.90
16523;DHT22;19889;52.546;13.348;2023-09-19T03:45:48;21.40;99.90
16523;DHT22;19889;52.546;13.348;2023-09-19T03:48:17;21.40;99.90
16523;DHT22;19889;52.546;13.348;2023-09-19T03:50:46;21.40;99.90
16523;DHT22;19889;52.546;13.348;2023-09-19T03:53:13;21.40;99.90
16523;DHT22;19889;52.546;13.348;2023-09-19T03:55:40;21.40;99.90
16523;DHT22;19889;52.546;13.348;2023-09-19T03:58:08;21.30;99.90
16523;DHT22;19889;52.546;13.348;2023-09-19T04:00:35;21.30;99.90
16523;DHT22;19889;52.546;13.348;2023-09-19T04:03:04;21.30;99.90
16523;DHT22;19889;52.546;13.348;2023-09-19T04:05:32;21.30;99.90
16523;DHT22;19889;52.546;13.348;2023-09-19T04:08:00;21.20;99.90
16523;DHT22;19889;52.546;13.348;2023-09-19T04:10:27;21.30;99.90
16523;DHT22;19889;52.546;13.348;2023-09-19T04:12:55;21.20;99.90
16523;DHT22;19889;52.546;13.348;2023-09-19T04:15:23;21.20;99.90
16523;DHT22;19889;52.546;13.348;2023-09-19T04:17:53;21.20;99.90
16523;DHT22;19889;52.546;13.348;2023-09-19T04:20:22;21.20;99.90
16523;DHT22;19889;52.546;13.348;2023-09-19T04:22:50;21.10;99.90
16523;DHT22;19889;52.546;13.348;2023-09-19T04:25:17;21.10;99.90
16523;DHT22;19889;52.546;13.348;2023-09-19T04:27:44;21.10;99.90
16523;DHT22;19889;52.546;13.348;2023-09-19T04:30:12;21.10;99.90
16523;DHT22;19889;52.546;13.348;2023-09-19T04:32:40;21.10;99.90
16523;DHT22;19889;52.546;13.348;2023-09-19T04:35:09;21.10;99.90
16523;DHT22;19889;52.546;13.348;2023-09-19T04:37:39;21.00;99.90
16523;DHT22;19889;52.546;13.348;2023-09-19T04:40:08;21.00;99.90
16523;DHT22;19889;52.546;13.348;2023-09-19T04:42:40;21.00;99.90
16523;DHT22;19889;52.546;13.348;2023-09-19T04:45:08;21.00;99.90
16523;DHT22;19889;52.546;13.348;2023-09-19T04:47:36;21.00;99.90
16523;DHT22;19889;52.546;13.348;2023-09-19T04:50:07;21.00;99.90
16523;DHT22;19889;52.546;13.348;2023-09-19T04:52:40;20.90;99.90
16523;DHT22;19889;52.546;13.348;2023-09-19T04:55:10;20.90;99.90
16523;DHT22;19889;52.546;13.348;2023-09-19T04:57:43;20.90;99.90
16523;DHT22;19889;52.546;13.348;2023-09-19T05:00:12;20.90;99.90
16523;DHT22;19889;52.546;13.348;2023-09-19T05:02:40;20.90;99.90
16523;DHT22;19889;52.546;13.348;2023-09-19T05:05:09;20.90;99.90
16523;DHT22;19889;52.546;13.348;2023-09-19T05:07:37;20.90;99.90
16523;DHT22;19889;52.546;13.348;2023-09-19T05:10:08;20.90;99.90
16523;DHT22;19889;52.546;13.348;2023-09-19T05:12:36;20.80;99.90
16523;DHT22;19889;52.546;13.348;2023-09-19T05:15:03;20.90;99.90
16523;DHT22;19889;52.546;13.348;2023-09-19T05:17:32;20.90;99.90
16523;DHT22;19889;52.546;13.348;2023-09-19T05:20:00;20.80;99.90
16523;DHT22;19889;52.546;13.348;2023-09-19T05:22:41;20.80;99.90
16523;DHT22;19889;52.546;13.348;2023-09-19T05:25:10;20.60;99.90
16523;DHT22;19889;52.546;13.348;2023-09-19T05:27:41;20.70;99.90
16523;DHT22;19889;52.546;13.348;2023-09-19T05:30:09;20.80;99.90
16523;DHT22;19889;52.546;13.348;2023-09-19T05:32:39;20.80;99.90
16523;DHT22;19889;52.546;13.348;2023-09-19T05:35:07;20.80;99.90
16523;DHT22;19889;52.546;13.348;2023-09-19T05:37:35;20.80;99.90
16523;DHT22;19889;52.546;13.348;2023-09-19T05:40:04;20.80;99.90
16523;DHT22;19889;52.546;13.348;2023-09-19T05:42:38;20.80;99.90
16523;DHT22;19889;52.546;13.348;2023-09-19T05:45:06;20.80;99.90
16523;DHT22;19889;52.546;13.348;2023-09-19T05:47:33;20.60;99.90
16523;DHT22;19889;52.546;13.348;2023-09-19T05:50:01;20.80;99.90
16523;DHT22;19889;52.546;13.348;2023-09-19T05:52:28;20.70;99.90
16523;DHT22;19889;52.546;13.348;2023-09-19T05:54:56;20.70;99.90
16523;DHT22;19889;52.546;13.348;2023-09-19T05:57:23;20.80;99.90
16523;DHT22;19889;52.546;13.348;2023-09-19T05:59:52;20.80;99.90
16523;DHT22;19889;52.546;13.348;2023-09-19T06:02:19;20.70;99.90
16523;DHT22;19889;52.546;13.348;2023-09-19T06:04:46;20.80;99.90
16523;DHT22;19889;52.546;13.348;2023-09-19T06:07:13;20.70;99.90
16523;DHT22;19889;52.546;13.348;2023-09-19T06:09:42;20.80;99.90
16523;DHT22;19889;52.546;13.348;2023-09-19T06:12:09;20.80;99.90
16523;DHT22;19889;52.546;13.348;2023-09-19T06:14:39;20.80;99.90
16523;DHT22;19889;52.546;13.348;2023-09-19T06:17:08;20.80;99.90
16523;DHT22;19889;52.546;13.348;2023-09-19T06:19:36;20.80;99.90
16523;DHT22;19889;52.546;13.348;2023-09-19T06:22:03;20.90;99.90
16523;DHT22;19889;52.546;13.348;2023-09-19T06:24:31;20.90;99.90
16523;DHT22;19889;52.546;13.348;2023-09-19T06:26:58;20.90;99.90
16523;DHT22;19889;52.546;13.348;2023-09-19T06:29:26;20.90;99.90
16523;DHT22;19889;52.546;13.348;2023-09-19T06:31:54;20.90;99.90
16523;DHT22;19889;52.546;13.348;2023-09-19T06:34:23;20.80;99.90
16523;DHT22;19889;52.546;13.348;2023-09-19T06:36:52;20.90;99.90
16523;DHT22;19889;52.546;13.348;2023-09-19T06:39:24;20.90;99.90
16523;DHT22;19889;52.546;13.348;2023-09-19T06:41:52;20.90;99.90
16523;DHT22;19889;52.546;13.348;2023-09-19T06:44:20;20.90;99.90
16523;DHT22;19889;52.546;13.348;2023-09-19T06:46:47;20.90;99.90
16523;DHT22;19889;52.546;13.348;2023-09-19T06:49:15;20.90;99.90
16523;DHT22;19889;52.546;13.348;2023-09-19T06:51:44;20.90;99.90
16523;DHT22;19889;52.546;13.348;2023-09-19T06:54:11;21.00;99.90
16523;DHT22;19889;52.546;13.348;2023-09-19T06:56:38;20.90;99.90
16523;DHT22;19889;52.546;13.348;2023-09-19T06:59:07;21.00;99.90
16523;DHT22;19889;52.546;13.348;2023-09-19T07:01:34;21.00;99.90
16523;DHT22;19889;52.546;13.348;2023-09-19T07:04:03;21.00;99.90
16523;DHT22;19889;52.546;13.348;2023-09-19T07:06:31;21.00;99.90
16523;DHT22;19889;52.546;13.348;2023-09-19T07:09:00;21.00;99.90
16523;DHT22;19889;52.546;13.348;2023-09-19T07:11:27;21.10;99.90
16523;DHT22;19889;52.546;13.348;2023-09-19T07:13:57;21.00;99.90
16523;DHT22;19889;52.546;13.348;2023-09-19T07:16:24;21.10;99.90
16523;DHT22;19889;52.546;13.348;2023-09-19T07:18:55;21.10;99.90
16523;DHT22;19889;52.546;13.348;2023-09-19T07:21:23;21.20;99.90
16523;DHT22;19889;52.546;13.348;2023-09-19T07:23:50;21.10;99.90
16523;DHT22;19889;52.546;13.348;2023-09-19T07:26:19;21.20;99.90
16523;DHT22;19889;52.546;13.348;2023-09-19T07:28:46;21.20;99.90
16523;DHT22;19889;52.546;13.348;2023-09-19T07:31:13;21.10;99.90
16523;DHT22;19889;52.546;13.348;2023-09-19T07:33:43;21.10;99.90
16523;DHT22;19889;52.546;13.348;2023-09-19T07:36:11;21.10;99.90
16523;DHT22;19889;52.546;13.348;2023-09-19T07:38:39;21.00;99.90
16523;DHT22;19889;52.546;13.348;2023-09-19T07:41:07;21.00;99.90
16523;DHT22;19889;52.546;13.348;2023-09-19T07:43:36;21.00;99.90
16523;DHT22;19889;52.546;13.348;2023-09-19T07:46:05;21.00;99.90
16523;DHT22;19889;52.546;13.348;2023-09-19T07:48:35;21.20;99.90
16523;DHT22;19889;52.546;13.348;2023-09-19T07:51:04;20.90;99.90
16523;DHT22;19889;52.546;13.348;2023-09-19T07:53:32;20.90;99.90
16523;DHT22;19889;52.546;13.348;2023-09-19T07:56:04;21.00;99.90
16523;DHT22;19889;52.546;13.348;2023-09-19T07:58:32;21.00;99.90
16523;DHT22;19889;52.546;13.348;2023-09-19T08:01:06;20.90;99.90
16523;DHT22;19889;52.546;13.348;2023-09-19T08:03:33;21.00;99.90
16523;DHT22;19889;52.546;13.348;2023-09-19T08:06:05;21.10;99.90
16523;DHT22;19889;52.546;13.348;2023-09-19T08:08:33;20.90;99.90
16523;DHT22;19889;52.546;13.348;2023-09-19T08:11:03;21.10;99.90
16523;DHT22;19889;52.546;13.348;2023-09-19T08:13:36;21.00;99.90
16523;DHT22;19889;52.546;13.348;2023-09-19T08:16:08;20.90;99.90
16523;DHT22;19889;52.546;13.348;2023-09-19T08:18:36;20.90;99.90
16523;DHT22;19889;52.546;13.348;2023-09-19T08:21:03;21.00;99.90
16523;DHT22;19889;52.546;13.348;2023-09-19T08:23:31;20.80;99.90
16523;DHT22;19889;52.546;13.348;2023-09-19T08:25:58;20.80;99.90
16523;DHT22;19889;52.546;13.348;2023-09-19T08:28:29;20.90;99.90
16523;DHT22;19889;52.546;13.348;2023-09-19T08:30:56;20.90;99.90
16523;DHT22;19889;52.546;13.348;2023-09-19T08:33:29;21.00;99.90
16523;DHT22;19889;52.546;13.348;2023-09-19T08:35:57;21.10;99.90
16523;DHT22;19889;52.546;13.348;2023-09-19T08:38:24;21.10;99.90
16523;DHT22;19889;52.546;13.348;2023-09-19T08:40:57;21.20;99.90
16523;DHT22;19889;52.546;13.348;2023-09-19T08:43:25;21.20;99.90
16523;DHT22;19889;52.546;13.348;2023-09-19T08:45:58;21.40;99.90
16523;DHT22;19889;52.546;13.348;2023-09-19T08:48:32;21.20;99.90
16523;DHT22;19889;52.546;13.348;2023-09-19T08:51:03;21.80;99.90
16523;DHT22;19889;52.546;13.348;2023-09-19T08:53:41;21.50;99.90
16523;DHT22;19889;52.546;13.348;2023-09-19T08:56:12;21.30;99.90
16523;DHT22;19889;52.546;13.348;2023-09-19T08:58:46;21.30;99.90
16523;DHT22;19889;52.546;13.348;2023-09-19T09:01:16;21.30;99.90
16523;DHT22;19889;52.546;13.348;2023-09-19T09:03:50;21.30;99.90
16523;DHT22;19889;52.546;13.348;2023-09-19T09:06:18;21.30;99.90
16523;DHT22;19889;52.546;13.348;2023-09-19T09:08:46;21.30;99.90
16523;DHT22;19889;52.546;13.348;2023-09-19T09:11:15;21.30;99.90
16523;DHT22;19889;52.546;13.348;2023-09-19T09:13:43;21.30;99.90
16523;DHT22;19889;52.546;13.348;2023-09-19T09:16:12;21.30;99.90
16523;DHT22;19889;52.546;13.348;2023-09-19T09:18:39;21.20;99.90
16523;DHT22;19889;52.546;13.348;2023-09-19T09:21:08;21.20;99.90
16523;DHT22;19889;52.546;13.348;2023-09-19T09:23:37;21.20;99.90
16523;DHT22;19889;52.546;13.348;2023-09-19T09:26:04;21.20;99.90
16523;DHT22;19889;52.546;13.348;2023-09-19T09:28:34;21.30;99.90
16523;DHT22;19889;52.546;13.348;2023-09-19T09:31:02;21.30;99.90
16523;DHT22;19889;52.546;13.348;2023-09-19T09:33:33;21.30;99.90
16523;DHT22;19889;52.546;13.348;2023-09-19T09:36:02;21.40;99.90
16523;DHT22;19889;52.546;13.348;2023-09-19T09:38:43;21.40;99.90
16523;DHT22;19889;52.546;13.348;2023-09-19T09:41:11;21.40;99.90
16523;DHT22;19889;52.546;13.348;2023-09-19T09:43:42;21.30;99.90
16523;DHT22;19889;52.546;13.348;2023-09-19T09:46:13;21.30;99.90
16523;DHT22;19889;52.546;13.348;2023-09-19T09:49:10;21.20;99.90
16523;DHT22;19889;52.546;13.348;2023-09-19T09:52:00;21.20;99.90
16523;DHT22;19889;52.546;13.348;2023-09-19T09:54:33;21.30;99.90
16523;DHT22;19889;52.546;13.348;2023-09-19T09:57:04;21.20;99.90
16523;DHT22;19889;52.546;13.348;2023-09-19T09:59:47;21.20;99.90
16523;DHT22;19889;52.546;13.348;2023-09-19T10:02:16;21.20;99.90
16523;DHT22;19889;52.546;13.348;2023-09-19T10:04:50;21.20;99.90
16523;DHT22;19889;52.546;13.348;2023-09-19T10:07:30;21.20;99.90
16523;DHT22;19889;52.546;13.348;2023-09-19T10:10:03;21.20;99.90
16523;DHT22;19889;52.546;13.348;2023-09-19T10:12:46;21.20;99.90
16523;DHT22;19889;52.546;13.348;2023-09-19T10:15:16;21.20;99.90
16523;DHT22;19889;52.546;13.348;2023-09-19T10:17:46;20.90;99.90
16523;DHT22;19889;52.546;13.348;2023-09-19T10:20:17;21.20;99.90
16523;DHT22;19889;52.546;13.348;2023-09-19T10:23:00;21.00;99.90
16523;DHT22;19889;52.546;13.348;2023-09-19T10:25:29;21.20;99.90
16523;DHT22;19889;52.546;13.348;2023-09-19T10:28:00;21.20;99.90
16523;DHT22;19889;52.546;13.348;2023-09-19T10:30:31;21.20;99.90
16523;DHT22;19889;52.546;13.348;2023-09-19T10:33:01;21.30;99.90
16523;DHT22;19889;52.546;13.348;2023-09-19T10:35:29;21.20;99.90
16523;DHT22;19889;52.546;13.348;2023-09-19T10:38:00;21.20;99.90
16523;DHT22;19889;52.546;13.348;2023-09-19T10:40:32;21.30;99.90
16523;DHT22;19889;52.546;13.348;2023-09-19T10:43:02;21.40;99.90
16523;DHT22;19889;52.546;13.348;2023-09-19T10:45:33;21.30;99.90
16523;DHT22;19889;52.546;13.348;2023-09-19T10:48:02;21.30;99.90
16523;DHT22;19889;52.546;13.348;2023-09-19T10:50:35;21.30;99.90
16523;DHT22;19889;52.546;13.348;2023-09-19T10:53:04;21.30;99.90
16523;DHT22;19889;52.546;13.348;2023-09-19T10:55:36;21.30;99.90
16523;DHT22;19889;52.546;13.348;2023-09-19T10:58:05;21.30;99.90
16523;DHT22;19889;52.546;13.348;2023-09-19T11:00:53;21.30;99.90
16523;DHT22;19889;52.546;13.348;2023-09-19T11:03:22;21.30;99.90
16523;DHT22;19889;52.546;13.348;2023-09-19T11:06:17;21.30;99.90
16523;DHT22;19889;52.546;13.348;2023-09-19T11:08:58;21.30;99.90
16523;DHT22;19889;52.546;13.348;2023-09-19T11:11:51;21.40;99.90
16523;DHT22;19889;52.546;13.348;2023-09-19T11:14:42;21.40;99.90
16523;DHT22;19889;52.546;13.348;2023-09-19T11:17:31;21.40;99.90
16523;DHT22;19889;52.546;13.348;2023-09-19T11:20:20;21.40;99.90
16523;DHT22;19889;52.546;13.348;2023-09-19T11:23:19;21.40;99.90
16523;DHT22;19889;52.546;13.348;2023-09-19T11:25:50;21.40;99.90
16523;DHT22;19889;52.546;13.348;2023-09-19T11:28:30;21.50;99.90
16523;DHT22;19889;52.546;13.348;2023-09-19T11:30:58;21.50;99.90
16523;DHT22;19889;52.546;13.348;2023-09-19T11:33:26;21.50;99.90
16523;DHT22;19889;52.546;13.348;2023-09-19T11:36:00;21.50;99.90
16523;DHT22;19889;52.546;13.348;2023-09-19T11:38:57;21.50;99.90
16523;DHT22;19889;52.546;13.348;2023-09-19T11:41:40;21.60;99.90
16523;DHT22;19889;52.546;13.348;2023-09-19T11:44:34;21.60;99.90
16523;DHT22;19889;52.546;13.348;2023-09-19T11:47:05;21.60;99.90
16523;DHT22;19889;52.546;13.348;2023-09-19T11:49:33;21.70;99.90
16523;DHT22;19889;52.546;13.348;2023-09-19T11:52:03;21.50;99.90
16523;DHT22;19889;52.546;13.348;2023-09-19T11:54:33;21.50;99.70
16523;DHT22;19889;52.546;13.348;2023-09-19T11:57:00;21.40;99.50
16523;DHT22;19889;52.546;13.348;2023-09-19T11:59:29;21.50;99.20
16523;DHT22;19889;52.546;13.348;2023-09-19T12:02:00;21.50;99.00
16523;DHT22;19889;52.546;13.348;2023-09-19T12:04:34;21.50;98.70
16523;DHT22;19889;52.546;13.348;2023-09-19T12:07:06;21.40;98.20
16523;DHT22;19889;52.546;13.348;2023-09-19T12:09:39;21.60;97.80
16523;DHT22;19889;52.546;13.348;2023-09-19T12:12:10;21.50;98.00
16523;DHT22;19889;52.546;13.348;2023-09-19T12:14:39;21.50;97.00
16523;DHT22;19889;52.546;13.348;2023-09-19T12:17:10;21.50;97.00
16523;DHT22;19889;52.546;13.348;2023-09-19T12:19:38;21.50;96.60
16523;DHT22;19889;52.546;13.348;2023-09-19T12:22:06;21.50;96.20
16523;DHT22;19889;52.546;13.348;2023-09-19T12:24:35;21.50;96.00
16523;DHT22;19889;52.546;13.348;2023-09-19T12:27:05;21.50;96.20
16523;DHT22;19889;52.546;13.348;2023-09-19T12:29:42;21.60;95.80
16523;DHT22;19889;52.546;13.348;2023-09-19T12:32:12;21.60;95.50
16523;DHT22;19889;52.546;13.348;2023-09-19T12:34:45;21.60;95.40
16523;DHT22;19889;52.546;13.348;2023-09-19T12:37:18;21.60;95.40
16523;DHT22;19889;52.546;13.348;2023-09-19T12:39:49;21.60;95.30
16523;DHT22;19889;52.546;13.348;2023-09-19T12:42:22;21.60;95.30
16523;DHT22;19889;52.546;13.348;2023-09-19T12:44:51;21.60;95.30
16523;DHT22;19889;52.546;13.348;2023-09-19T12:47:23;21.70;95.20
16523;DHT22;19889;52.546;13.348;2023-09-19T12:50:07;21.70;95.00
16523;DHT22;19889;52.546;13.348;2023-09-19T12:52:40;21.70;94.80
16523;DHT22;19889;52.546;13.348;2023-09-19T12:55:07;21.70;94.90
16523;DHT22;19889;52.546;13.348;2023-09-19T12:57:36;22.10;94.80
16523;DHT22;19889;52.546;13.348;2023-09-19T13:00:06;21.60;94.60
16523;DHT22;19889;52.546;13.348;2023-09-19T13:03:14;21.60;94.50
16523;DHT22;19889;52.546;13.348;2023-09-19T13:06:02;21.60;94.50
16523;DHT22;19889;52.546;13.348;2023-09-19T13:08:32;21.60;94.40
16523;DHT22;19889;52.546;13.348;2023-09-19T13:11:10;21.60;94.40
16523;DHT22;19889;52.546;13.348;2023-09-19T13:13:40;21.60;94.30
16523;DHT22;19889;52.546;13.348;2023-09-19T13:16:09;21.50;94.20
16523;DHT22;19889;52.546;13.348;2023-09-19T13:18:45;21.50;94.30
16523;DHT22;19889;52.546;13.348;2023-09-19T13:21:13;21.50;94.30
16523;DHT22;19889;52.546;13.348;2023-09-19T13:24:18;21.50;94.40
16523;DHT22;19889;52.546;13.348;2023-09-19T13:27:19;21.60;94.40
16523;DHT22;19889;52.546;13.348;2023-09-19T13:29:46;21.60;94.30
16523;DHT22;19889;52.546;13.348;2023-09-19T13:32:14;21.60;94.20
16523;DHT22;19889;52.546;13.348;2023-09-19T13:34:42;21.60;94.20
16523;DHT22;19889;52.546;13.348;2023-09-19T13:37:10;21.60;94.10
16523;DHT22;19889;52.546;13.348;2023-09-19T13:39:38;21.60;94.00
16523;DHT22;19889;52.546;13.348;2023-09-19T13:42:08;21.60;93.90
16523;DHT22;19889;52.546;13.348;2023-09-19T13:44:37;21.50;93.90
16523;DHT22;19889;52.546;13.348;2023-09-19T13:47:07;21.50;93.80
16523;DHT22;19889;52.546;13.348;2023-09-19T13:49:36;21.50;93.80
16523;DHT22;19889;52.546;13.348;2023-09-19T13:52:05;21.50;93.90
16523;DHT22;19889;52.546;13.348;2023-09-19T13:54:33;21.50;93.90
16523;DHT22;19889;52.546;13.348;2023-09-19T13:57:07;21.50;93.90
16523;DHT22;19889;52.546;13.348;2023-09-19T13:59:35;21.50;93.80
16523;DHT22;19889;52.546;13.348;2023-09-19T14:02:03;21.50;93.90
16523;DHT22;19889;52.546;13.348;2023-09-19T14:04:31;21.60;94.00
16523;DHT22;19889;52.546;13.348;2023-09-19T14:07:00;21.60;94.10
16523;DHT22;19889;52.546;13.348;2023-09-19T14:09:29;21.60;94.10
16523;DHT22;19889;52.546;13.348;2023-09-19T14:11:56;21.60;94.20
16523;DHT22;19889;52.546;13.348;2023-09-19T14:14:23;21.60;94.30
16523;DHT22;19889;52.546;13.348;2023-09-19T14:16:51;21.60;94.30
16523;DHT22;19889;52.546;13.348;2023-09-19T14:19:19;21.60;94.40
16523;DHT22;19889;52.546;13.348;2023-09-19T14:21:46;21.60;94.50
16523;DHT22;19889;52.546;13.348;2023-09-19T14:24:17;21.60;94.60
16523;DHT22;19889;52.546;13.348;2023-09-19T14:26:45;21.70;94.70
16523;DHT22;19889;52.546;13.348;2023-09-19T14:29:13;21.70;94.70
16523;DHT22;19889;52.546;13.348;2023-09-19T14:31:40;21.70;94.70
16523;DHT22;19889;52.546;13.348;2023-09-19T14:34:08;21.70;94.80
16523;DHT22;19889;52.546;13.348;2023-09-19T14:36:36;21.70;94.70
16523;DHT22;19889;52.546;13.348;2023-09-19T14:39:04;21.70;94.90
16523;DHT22;19889;52.546;13.348;2023-09-19T14:41:32;21.70;94.90
16523;DHT22;19889;52.546;13.348;2023-09-19T14:44:02;21.50;94.70
16523;DHT22;19889;52.546;13.348;2023-09-19T14:46:31;21.70;94.90
16523;DHT22;19889;52.546;13.348;2023-09-19T14:48:58;21.70;94.80
16523;DHT22;19889;52.546;13.348;2023-09-19T14:51:29;21.70;94.80
16523;DHT22;19889;52.546;13.348;2023-09-19T14:53:57;21.70;95.00
16523;DHT22;19889;52.546;13.348;2023-09-19T14:56:24;21.70;94.90
16523;DHT22;19889;52.546;13.348;2023-09-19T14:58:52;21.80;95.00
16523;DHT22;19889;52.546;13.348;2023-09-19T15:01:21;21.70;94.80
16523;DHT22;19889;52.546;13.348;2023-09-19T15:03:48;21.70;95.00
16523;DHT22;19889;52.546;13.348;2023-09-19T15:06:16;21.70;94.90
16523;DHT22;19889;52.546;13.348;2023-09-19T15:08:46;21.70;95.00
16523;DHT22;19889;52.546;13.348;2023-09-19T15:11:14;21.80;95.60
16523;DHT22;19889;52.546;13.348;2023-09-19T15:13:44;21.80;95.40
16523;DHT22;19889;52.546;13.348;2023-09-19T15:16:11;21.80;96.30
16523;DHT22;19889;52.546;13.348;2023-09-19T15:18:42;21.80;95.70
16523;DHT22;19889;52.546;13.348;2023-09-19T15:21:12;22.20;96.20
16523;DHT22;19889;52.546;13.348;2023-09-19T15:23:42;21.80;96.30
16523;DHT22;19889;52.546;13.348;2023-09-19T15:26:11;21.80;96.30
16523;DHT22;19889;52.546;13.348;2023-09-19T15:28:39;21.60;96.80
16523;DHT22;19889;52.546;13.348;2023-09-19T15:31:07;21.80;96.50
16523;DHT22;19889;52.546;13.348;2023-09-19T15:33:35;21.70;96.60
16523;DHT22;19889;52.546;13.348;2023-09-19T15:36:05;21.80;96.60